sensor_id;sensor_type;location;lat;lon;timestamp;temperature;humidity
30473;DHT22;17263;48.160;11.452;2023-07-29T00:01:40;16.70;99.90
30473;DHT22;17263;48.160;11.452;2023-07-29T00:04:07;16.60;99.90
30473;DHT22;17263;48.160;11.452;2023-07-29T00:06:35;16.60;99.90
30473;DHT22;17263;48.160;11.452;2023-07-29T00:09:02;16.60;99.90
30473;DHT22;17263;48.160;11.452;2023-07-29T00:11:28;16.60;99.90
30473;DHT22;17263;48.160;11.452;2023-07-29T00:13:54;16.60;99.90
30473;DHT22;17263;48.160;11.452;2023-07-29T00:16:20;16.50;99.90
30473;DHT22;17263;48.160;11.452;2023-07-29T00:18:49;16.50;99.90
30473;DHT22;17263;48.160;11.452;2023-07-29T00:21:15;16.50;99.90
30473;DHT22;17263;48.160;11.452;2023-07-29T00:23:41;16.50;99.90
30473;DHT22;17263;48.160;11.452;2023-07-29T00:26:07;16.50;99.90
30473;DHT22;17263;48.160;11.452;2023-07-29T00:28:33;16.50;99.90
30473;DHT22;17263;48.160;11.452;2023-07-29T00:30:59;16.50;99.90
30473;DHT22;17263;48.160;11.452;2023-07-29T00:33:25;16.50;99.90
30473;DHT22;17263;48.160;11.452;2023-07-29T00:35:51;16.60;99.90
30473;DHT22;17263;48.160;11.452;2023-07-29T00:38:17;16.50;99.90
30473;DHT22;17263;48.160;11.452;2023-07-29T00:40:43;16.60;99.90
30473;DHT22;17263;48.160;11.452;2023-07-29T00:43:09;16.50;99.90
30473;DHT22;17263;48.160;11.452;2023-07-29T00:45:36;16.60;99.90
30473;DHT22;17263;48.160;11.452;2023-07-29T00:48:03;16.70;99.90
30473;DHT22;17263;48.160;11.452;2023-07-29T00:50:30;16.70;99.90
30473;DHT22;17263;48.160;11.452;2023-07-29T00:52:57;16.70;99.90
30473;DHT22;17263;48.160;11.452;2023-07-29T00:55:23;16.70;99.90
30473;DHT22;17263;48.160;11.452;2023-07-29T00:57:51;16.60;99.90
30473;DHT22;17263;48.160;11.452;2023-07-29T01:00:20;16.70;99.90
30473;DHT22;17263;48.160;11.452;2023-07-29T01:02:47;16.70;99.90
30473;DHT22;17263;48.160;11.452;2023-07-29T01:05:15;16.60;99.90
30473;DHT22;17263;48.160;11.452;2023-07-29T01:14:06;16.60;99.90
30473;DHT22;17263;48.160;11.452;2023-07-29T01:16:43;16.50;99.90
30473;DHT22;17263;48.160;11.452;2023-07-29T01:21:51;16.40;99.90
30473;DHT22;17263;48.160;11.452;2023-07-29T01:24:17;16.40;99.90
30473;DHT22;17263;48.160;11.452;2023-07-29T01:26:43;16.40;99.90
30473;DHT22;17263;48.160;11.452;2023-07-29T01:29:09;16.40;99.90
30473;DHT22;17263;48.160;11.452;2023-07-29T01:31:43;16.30;99.90
30473;DHT22;17263;48.160;11.452;2023-07-29T01:34:16;16.30;99.90
30473;DHT22;17263;48.160;11.452;2023-07-29T01:36:45;16.30;99.90
30473;DHT22;17263;48.160;11.452;2023-07-29T01:39:12;16.30;99.90
30473;DHT22;17263;48.160;11.452;2023-07-29T01:41:41;16.30;99.90
30473;DHT22;17263;48.160;11.452;2023-07-29T01:44:07;16.30;99.90
30473;DHT22;17263;48.160;11.452;2023-07-29T01:46:34;16.20;99.90
30473;DHT22;17263;48.160;11.452;2023-07-29T01:49:00;16.20;99.90
30473;DHT22;17263;48.160;11.452;2023-07-29T01:51:26;16.20;99.90
30473;DHT22;17263;48.160;11.452;2023-07-29T01:53:52;16.20;99.90
30473;DHT22;17263;48.160;11.452;2023-07-29T01:56:18;16.20;99.90
30473;DHT22;17263;48.160;11.452;2023-07-29T01:58:44;16.20;99.90
30473;DHT22;17263;48.160;11.452;2023-07-29T02:01:10;16.20;99.90
30473;DHT22;17263;48.160;11.452;2023-07-29T02:03:36;16.20;99.90
30473;DHT22;17263;48.160;11.452;2023-07-29T02:06:02;16.30;99.90
30473;DHT22;17263;48.160;11.452;2023-07-29T02:08:28;16.20;99.90
30473;DHT22;17263;48.160;11.452;2023-07-29T02:10:54;16.20;99.90
30473;DHT22;17263;48.160;11.452;2023-07-29T02:13:20;16.20;99.90
30473;DHT22;17263;48.160;11.452;2023-07-29T02:15:46;16.20;99.90
30473;DHT22;17263;48.160;11.452;2023-07-29T02:18:12;16.20;99.90
30473;DHT22;17263;48.160;11.452;2023-07-29T02:20:38;16.20;99.90
30473;DHT22;17263;48.160;11.452;2023-07-29T02:23:04;16.10;99.90
30473;DHT22;17263;48.160;11.452;2023-07-29T02:25:30;16.10;99.90
30473;DHT22;17263;48.160;11.452;2023-07-29T02:27:56;16.10;99.90
30473;DHT22;17263;48.160;11.452;2023-07-29T02:30:22;16.10;99.90
30473;DHT22;17263;48.160;11.452;2023-07-29T02:32:48;16.10;99.90
30473;DHT22;17263;48.160;11.452;2023-07-29T02:35:15;16.00;99.90
30473;DHT22;17263;48.160;11.452;2023-07-29T02:37:41;16.00;99.90
30473;DHT22;17263;48.160;11.452;2023-07-29T02:40:07;16.00;99.90
30473;DHT22;17263;48.160;11.452;2023-07-29T02:42:33;16.00;99.90
30473;DHT22;17263;48.160;11.452;2023-07-29T02:44:59;16.00;99.90
30473;DHT22;17263;48.160;11.452;2023-07-29T02:47:25;16.00;99.90
30473;DHT22;17263;48.160;11.452;2023-07-29T02:49:51;16.00;99.90
30473;DHT22;17263;48.160;11.452;2023-07-29T02:52:17;15.90;99.90
30473;DHT22;17263;48.160;11.452;2023-07-29T02:54:43;15.90;99.90
30473;DHT22;17263;48.160;11.452;2023-07-29T02:57:09;16.00;99.90
30473;DHT22;17263;48.160;11.452;2023-07-29T02:59:35;15.90;99.90
30473;DHT22;17263;48.160;11.452;2023-07-29T03:02:01;15.90;99.90
30473;DHT22;17263;48.160;11.452;2023-07-29T03:04:27;15.90;99.90
30473;DHT22;17263;48.160;11.452;2023-07-29T03:06:53;15.90;99.90
30473;DHT22;17263;48.160;11.452;2023-07-29T03:09:19;15.90;99.90
30473;DHT22;17263;48.160;11.452;2023-07-29T03:11:45;16.00;99.90
30473;DHT22;17263;48.160;11.452;2023-07-29T03:14:11;16.00;99.90
30473;DHT22;17263;48.160;11.452;2023-07-29T03:16:38;16.00;99.90
30473;DHT22;17263;48.160;11.452;2023-07-29T03:19:04;16.00;99.90
30473;DHT22;17263;48.160;11.452;2023-07-29T03:21:32;15.90;99.90
30473;DHT22;17263;48.160;11.452;2023-07-29T03:23:58;16.00;99.90
30473;DHT22;17263;48.160;11.452;2023-07-29T03:26:24;16.00;99.90
30473;DHT22;17263;48.160;11.452;2023-07-29T03:28:51;16.00;99.90
30473;DHT22;17263;48.160;11.452;2023-07-29T03:31:17;16.10;99.90
30473;DHT22;17263;48.160;11.452;2023-07-29T03:33:43;16.00;99.90
30473;DHT22;17263;48.160;11.452;2023-07-29T03:36:09;16.10;99.90
30473;DHT22;17263;48.160;11.452;2023-07-29T03:38:35;16.00;99.90
30473;DHT22;17263;48.160;11.452;2023-07-29T03:41:07;16.00;99.90
30473;DHT22;17263;48.160;11.452;2023-07-29T03:43:33;16.10;99.90
30473;DHT22;17263;48.160;11.452;2023-07-29T03:46:00;16.10;99.90
30473;DHT22;17263;48.160;11.452;2023-07-29T03:48:26;16.10;99.90
30473;DHT22;17263;48.160;11.452;2023-07-29T03:50:52;16.10;99.90
30473;DHT22;17263;48.160;11.452;2023-07-29T03:53:18;16.20;99.90
30473;DHT22;17263;48.160;11.452;2023-07-29T03:55:44;16.20;99.90
30473;DHT22;17263;48.160;11.452;2023-07-29T03:58:11;16.20;99.90
30473;DHT22;17263;48.160;11.452;2023-07-29T04:00:37;16.30;99.90
30473;DHT22;17263;48.160;11.452;2023-07-29T04:03:03;16.30;99.90
30473;DHT22;17263;48.160;11.452;2023-07-29T04:05:29;16.30;99.90
30473;DHT22;17263;48.160;11.452;2023-07-29T04:07:55;16.40;99.90
30473;DHT22;17263;48.160;11.452;2023-07-29T04:10:21;16.40;99.90
30473;DHT22;17263;48.160;11.452;2023-07-29T04:12:47;16.40;99.90
30473;DHT22;17263;48.160;11.452;2023-07-29T04:15:14;16.40;99.90
30473;DHT22;17263;48.160;11.452;2023-07-29T04:17:40;16.40;99.90
30473;DHT22;17263;48.160;11.452;2023-07-29T04:20:06;16.40;99.90
30473;DHT22;17263;48.160;11.452;2023-07-29T04:22:33;16.40;99.90
30473;DHT22;17263;48.160;11.452;2023-07-29T04:24:59;16.40;99.90
30473;DHT22;17263;48.160;11.452;2023-07-29T04:27:25;16.40;99.90
30473;DHT22;17263;48.160;11.452;2023-07-29T04:29:51;16.40;99.90
30473;DHT22;17263;48.160;11.452;2023-07-29T04:32:17;16.40;99.90
30473;DHT22;17263;48.160;11.452;2023-07-29T04:34:43;16.40;99.90
30473;DHT22;17263;48.160;11.452;2023-07-29T04:37:09;16.40;99.90
30473;DHT22;17263;48.160;11.452;2023-07-29T04:39:35;16.40;99.90
30473;DHT22;17263;48.160;11.452;2023-07-29T04:42:02;16.40;99.90
30473;DHT22;17263;48.160;11.452;2023-07-29T04:44:28;16.40;99.90
30473;DHT22;17263;48.160;11.452;2023-07-29T04:46:54;16.50;99.90
30473;DHT22;17263;48.160;11.452;2023-07-29T04:49:20;16.60;99.90
30473;DHT22;17263;48.160;11.452;2023-07-29T04:51:46;16.70;99.90
30473;DHT22;17263;48.160;11.452;2023-07-29T04:54:12;16.70;99.90
30473;DHT22;17263;48.160;11.452;2023-07-29T04:56:38;16.80;99.90
30473;DHT22;17263;48.160;11.452;2023-07-29T04:59:04;17.00;99.90
30473;DHT22;17263;48.160;11.452;2023-07-29T05:01:30;17.40;99.90
30473;DHT22;17263;48.160;11.452;2023-07-29T05:03:56;17.70;99.90
30473;DHT22;17263;48.160;11.452;2023-07-29T05:06:22;18.40;99.90
30473;DHT22;17263;48.160;11.452;2023-07-29T05:08:48;19.10;99.90
30473;DHT22;17263;48.160;11.452;2023-07-29T05:11:14;20.00;99.90
30473;DHT22;17263;48.160;11.452;2023-07-29T05:13:40;20.80;99.90
30473;DHT22;17263;48.160;11.452;2023-07-29T05:16:08;21.50;99.90
30473;DHT22;17263;48.160;11.452;2023-07-29T05:18:34;21.80;99.90
30473;DHT22;17263;48.160;11.452;2023-07-29T05:21:00;22.00;99.90
30473;DHT22;17263;48.160;11.452;2023-07-29T05:23:26;21.90;99.90
30473;DHT22;17263;48.160;11.452;2023-07-29T05:25:52;21.60;99.90
30473;DHT22;17263;48.160;11.452;2023-07-29T05:28:18;21.50;99.90
30473;DHT22;17263;48.160;11.452;2023-07-29T05:30:44;21.30;99.90
30473;DHT22;17263;48.160;11.452;2023-07-29T05:33:10;21.40;99.90
30473;DHT22;17263;48.160;11.452;2023-07-29T05:35:37;21.60;99.90
30473;DHT22;17263;48.160;11.452;2023-07-29T05:38:03;21.50;99.90
30473;DHT22;17263;48.160;11.452;2023-07-29T05:40:31;21.20;99.90
30473;DHT22;17263;48.160;11.452;2023-07-29T05:42:57;21.00;99.90
30473;DHT22;17263;48.160;11.452;2023-07-29T05:45:23;20.80;99.90
30473;DHT22;17263;48.160;11.452;2023-07-29T05:47:49;20.50;99.90
30473;DHT22;17263;48.160;11.452;2023-07-29T05:50:15;20.30;99.90
30473;DHT22;17263;48.160;11.452;2023-07-29T05:52:41;20.10;99.90
30473;DHT22;17263;48.160;11.452;2023-07-29T05:55:08;19.90;99.90
30473;DHT22;17263;48.160;11.452;2023-07-29T05:57:34;19.70;99.90
30473;DHT22;17263;48.160;11.452;2023-07-29T06:00:00;19.50;99.90
30473;DHT22;17263;48.160;11.452;2023-07-29T06:02:26;19.40;99.90
30473;DHT22;17263;48.160;11.452;2023-07-29T06:04:52;19.40;99.90
30473;DHT22;17263;48.160;11.452;2023-07-29T06:07:18;19.10;99.90
30473;DHT22;17263;48.160;11.452;2023-07-29T06:09:44;18.90;99.90
30473;DHT22;17263;48.160;11.452;2023-07-29T06:12:10;18.70;99.90
30473;DHT22;17263;48.160;11.452;2023-07-29T06:14:36;18.60;99.90
30473;DHT22;17263;48.160;11.452;2023-07-29T06:17:02;18.50;99.90
30473;DHT22;17263;48.160;11.452;2023-07-29T06:19:28;18.40;99.90
30473;DHT22;17263;48.160;11.452;2023-07-29T06:21:58;18.40;99.90
30473;DHT22;17263;48.160;11.452;2023-07-29T06:24:24;18.40;99.90
30473;DHT22;17263;48.160;11.452;2023-07-29T06:26:50;18.50;99.90
30473;DHT22;17263;48.160;11.452;2023-07-29T06:29:16;18.50;99.90
30473;DHT22;17263;48.160;11.452;2023-07-29T06:31:42;18.50;99.90
30473;DHT22;17263;48.160;11.452;2023-07-29T06:34:08;18.60;99.90
30473;DHT22;17263;48.160;11.452;2023-07-29T06:36:34;18.70;99.90
30473;DHT22;17263;48.160;11.452;2023-07-29T06:39:00;18.70;99.90
30473;DHT22;17263;48.160;11.452;2023-07-29T06:41:26;18.80;99.90
30473;DHT22;17263;48.160;11.452;2023-07-29T06:43:52;18.90;99.90
30473;DHT22;17263;48.160;11.452;2023-07-29T06:46:18;18.90;99.90
30473;DHT22;17263;48.160;11.452;2023-07-29T06:48:44;18.90;99.90
30473;DHT22;17263;48.160;11.452;2023-07-29T06:51:10;18.90;99.90
30473;DHT22;17263;48.160;11.452;2023-07-29T06:53:36;18.80;99.90
30473;DHT22;17263;48.160;11.452;2023-07-29T06:56:02;18.60;99.90
30473;DHT22;17263;48.160;11.452;2023-07-29T06:58:28;18.40;99.90
30473;DHT22;17263;48.160;11.452;2023-07-29T07:00:54;18.20;99.90
30473;DHT22;17263;48.160;11.452;2023-07-29T07:03:20;18.20;99.90
30473;DHT22;17263;48.160;11.452;2023-07-29T07:05:46;18.20;99.90
30473;DHT22;17263;48.160;11.452;2023-07-29T07:08:12;18.00;99.90
30473;DHT22;17263;48.160;11.452;2023-07-29T07:10:38;18.00;99.90
30473;DHT22;17263;48.160;11.452;2023-07-29T07:13:04;17.90;99.90
30473;DHT22;17263;48.160;11.452;2023-07-29T07:15:31;17.90;99.90
30473;DHT22;17263;48.160;11.452;2023-07-29T07:17:57;17.90;99.90
30473;DHT22;17263;48.160;11.452;2023-07-29T07:20:23;17.90;99.90
30473;DHT22;17263;48.160;11.452;2023-07-29T07:22:49;17.90;99.90
30473;DHT22;17263;48.160;11.452;2023-07-29T07:25:15;17.90;99.90
30473;DHT22;17263;48.160;11.452;2023-07-29T07:27:41;17.90;99.90
30473;DHT22;17263;48.160;11.452;2023-07-29T07:30:08;18.00;99.90
30473;DHT22;17263;48.160;11.452;2023-07-29T07:32:34;18.00;99.90
30473;DHT22;17263;48.160;11.452;2023-07-29T07:35:00;18.00;99.90
30473;DHT22;17263;48.160;11.452;2023-07-29T07:37:26;18.00;99.90
30473;DHT22;17263;48.160;11.452;2023-07-29T07:39:52;18.00;99.90
30473;DHT22;17263;48.160;11.452;2023-07-29T07:42:18;18.10;99.90
30473;DHT22;17263;48.160;11.452;2023-07-29T07:44:44;18.20;99.90
30473;DHT22;17263;48.160;11.452;2023-07-29T07:47:10;18.40;99.90
30473;DHT22;17263;48.160;11.452;2023-07-29T07:49:39;18.60;99.90
30473;DHT22;17263;48.160;11.452;2023-07-29T07:52:05;18.70;99.90
30473;DHT22;17263;48.160;11.452;2023-07-29T07:54:31;18.80;99.90
30473;DHT22;17263;48.160;11.452;2023-07-29T07:56:57;18.90;99.90
30473;DHT22;17263;48.160;11.452;2023-07-29T07:59:23;19.00;99.90
30473;DHT22;17263;48.160;11.452;2023-07-29T08:01:49;19.00;99.90
30473;DHT22;17263;48.160;11.452;2023-07-29T08:04:15;19.00;99.90
30473;DHT22;17263;48.160;11.452;2023-07-29T08:06:41;19.10;99.90
30473;DHT22;17263;48.160;11.452;2023-07-29T08:09:07;19.20;99.90
30473;DHT22;17263;48.160;11.452;2023-07-29T08:11:33;19.20;99.90
30473;DHT22;17263;48.160;11.452;2023-07-29T08:14:00;19.30;99.90
30473;DHT22;17263;48.160;11.452;2023-07-29T08:16:26;19.30;99.90
30473;DHT22;17263;48.160;11.452;2023-07-29T08:18:52;19.40;99.90
30473;DHT22;17263;48.160;11.452;2023-07-29T08:21:18;19.50;99.90
30473;DHT22;17263;48.160;11.452;2023-07-29T08:23:44;19.60;99.90
30473;DHT22;17263;48.160;11.452;2023-07-29T08:26:10;19.80;99.90
30473;DHT22;17263;48.160;11.452;2023-07-29T08:28:38;20.00;99.90
30473;DHT22;17263;48.160;11.452;2023-07-29T08:31:05;20.40;99.90
30473;DHT22;17263;48.160;11.452;2023-07-29T08:33:33;20.70;99.90
30473;DHT22;17263;48.160;11.452;2023-07-29T08:36:00;20.80;99.90
30473;DHT22;17263;48.160;11.452;2023-07-29T08:38:28;20.90;99.90
30473;DHT22;17263;48.160;11.452;2023-07-29T08:41:03;20.80;99.90
30473;DHT22;17263;48.160;11.452;2023-07-29T08:43:31;20.80;99.90
30473;DHT22;17263;48.160;11.452;2023-07-29T08:46:01;20.80;99.90
30473;DHT22;17263;48.160;11.452;2023-07-29T08:48:40;20.90;99.90
30473;DHT22;17263;48.160;11.452;2023-07-29T08:51:08;20.90;99.90
30473;DHT22;17263;48.160;11.452;2023-07-29T08:53:38;20.90;99.90
30473;DHT22;17263;48.160;11.452;2023-07-29T08:56:06;20.90;99.90
30473;DHT22;17263;48.160;11.452;2023-07-29T08:58:33;20.90;99.90
30473;DHT22;17263;48.160;11.452;2023-07-29T09:00:59;21.00;99.90
30473;DHT22;17263;48.160;11.452;2023-07-29T09:03:26;21.00;99.90
30473;DHT22;17263;48.160;11.452;2023-07-29T09:05:53;21.20;99.90
30473;DHT22;17263;48.160;11.452;2023-07-29T09:08:21;21.30;99.90
30473;DHT22;17263;48.160;11.452;2023-07-29T09:10:49;21.50;99.90
30473;DHT22;17263;48.160;11.452;2023-07-29T09:13:15;21.80;99.90
30473;DHT22;17263;48.160;11.452;2023-07-29T09:15:41;22.30;99.90
30473;DHT22;17263;48.160;11.452;2023-07-29T09:18:15;22.80;99.90
30473;DHT22;17263;48.160;11.452;2023-07-29T09:20:42;23.40;99.90
30473;DHT22;17263;48.160;11.452;2023-07-29T09:23:10;24.00;99.90
30473;DHT22;17263;48.160;11.452;2023-07-29T09:25:36;24.50;99.90
30473;DHT22;17263;48.160;11.452;2023-07-29T09:28:09;25.10;99.90
30473;DHT22;17263;48.160;11.452;2023-07-29T09:30:35;25.60;99.90
30473;DHT22;17263;48.160;11.452;2023-07-29T09:33:01;26.20;99.90
30473;DHT22;17263;48.160;11.452;2023-07-29T09:35:30;26.50;99.90
30473;DHT22;17263;48.160;11.452;2023-07-29T09:37:56;26.60;99.90
30473;DHT22;17263;48.160;11.452;2023-07-29T09:40:22;26.70;99.90
30473;DHT22;17263;48.160;11.452;2023-07-29T09:42:50;26.80;99.90
30473;DHT22;17263;48.160;11.452;2023-07-29T09:45:23;27.00;99.90
30473;DHT22;17263;48.160;11.452;2023-07-29T09:47:51;27.20;99.90
30473;DHT22;17263;48.160;11.452;2023-07-29T09:50:17;27.30;99.90
30473;DHT22;17263;48.160;11.452;2023-07-29T09:52:44;27.30;99.90
30473;DHT22;17263;48.160;11.452;2023-07-29T09:55:12;27.60;99.90
30473;DHT22;17263;48.160;11.452;2023-07-29T09:57:43;27.80;99.90
30473;DHT22;17263;48.160;11.452;2023-07-29T10:00:11;27.70;99.90
30473;DHT22;17263;48.160;11.452;2023-07-29T10:02:42;27.60;99.90
30473;DHT22;17263;48.160;11.452;2023-07-29T10:05:09;27.60;99.90
30473;DHT22;17263;48.160;11.452;2023-07-29T10:07:38;27.50;99.90
30473;DHT22;17263;48.160;11.452;2023-07-29T10:10:06;27.70;99.90
30473;DHT22;17263;48.160;11.452;2023-07-29T10:12:33;27.80;99.90
30473;DHT22;17263;48.160;11.452;2023-07-29T10:15:04;27.90;99.90
30473;DHT22;17263;48.160;11.452;2023-07-29T10:17:34;27.90;99.90
30473;DHT22;17263;48.160;11.452;2023-07-29T10:20:00;28.10;99.90
30473;DHT22;17263;48.160;11.452;2023-07-29T10:22:39;28.10;99.90
30473;DHT22;17263;48.160;11.452;2023-07-29T10:25:29;28.40;99.90
30473;DHT22;17263;48.160;11.452;2023-07-29T10:28:04;28.40;99.90
30473;DHT22;17263;48.160;11.452;2023-07-29T10:30:31;28.40;99.90
30473;DHT22;17263;48.160;11.452;2023-07-29T10:33:01;28.30;99.90
30473;DHT22;17263;48.160;11.452;2023-07-29T10:35:28;28.20;99.90
30473;DHT22;17263;48.160;11.452;2023-07-29T10:37:55;28.00;99.90
30473;DHT22;17263;48.160;11.452;2023-07-29T10:40:22;27.90;99.90
30473;DHT22;17263;48.160;11.452;2023-07-29T10:43:11;27.90;99.90
30473;DHT22;17263;48.160;11.452;2023-07-29T10:45:39;27.80;99.90
30473;DHT22;17263;48.160;11.452;2023-07-29T10:51:28;27.70;99.90
30473;DHT22;17263;48.160;11.452;2023-07-29T10:54:02;27.60;99.90
30473;DHT22;17263;48.160;11.452;2023-07-29T10:56:33;27.40;99.90
30473;DHT22;17263;48.160;11.452;2023-07-29T10:59:30;26.90;99.90
30473;DHT22;17263;48.160;11.452;2023-07-29T11:01:58;26.40;99.90
30473;DHT22;17263;48.160;11.452;2023-07-29T11:04:29;26.10;99.90
30473;DHT22;17263;48.160;11.452;2023-07-29T11:17:35;25.10;99.90
30473;DHT22;17263;48.160;11.452;2023-07-29T11:20:02;24.80;99.90
30473;DHT22;17263;48.160;11.452;2023-07-29T11:22:29;24.50;99.90
30473;DHT22;17263;48.160;11.452;2023-07-29T11:24:56;24.30;99.90
30473;DHT22;17263;48.160;11.452;2023-07-29T11:27:22;24.10;99.90
30473;DHT22;17263;48.160;11.452;2023-07-29T11:30:00;23.90;99.90
30473;DHT22;17263;48.160;11.452;2023-07-29T11:32:39;23.70;99.90
30473;DHT22;17263;48.160;11.452;2023-07-29T11:35:08;23.70;99.90
30473;DHT22;17263;48.160;11.452;2023-07-29T11:37:35;23.70;99.90
30473;DHT22;17263;48.160;11.452;2023-07-29T11:40:02;23.70;99.90
30473;DHT22;17263;48.160;11.452;2023-07-29T11:42:28;23.80;99.90
30473;DHT22;17263;48.160;11.452;2023-07-29T11:44:57;23.90;99.90
30473;DHT22;17263;48.160;11.452;2023-07-29T11:47:24;23.90;99.90
30473;DHT22;17263;48.160;11.452;2023-07-29T11:49:53;23.90;99.90
30473;DHT22;17263;48.160;11.452;2023-07-29T11:52:19;24.00;99.90
30473;DHT22;17263;48.160;11.452;2023-07-29T11:54:48;24.10;99.90
30473;DHT22;17263;48.160;11.452;2023-07-29T11:57:14;24.20;99.90
30473;DHT22;17263;48.160;11.452;2023-07-29T11:59:41;24.30;99.90
30473;DHT22;17263;48.160;11.452;2023-07-29T12:02:16;24.50;99.90
30473;DHT22;17263;48.160;11.452;2023-07-29T12:04:47;24.60;99.90
30473;DHT22;17263;48.160;11.452;2023-07-29T12:07:14;24.70;99.90
30473;DHT22;17263;48.160;11.452;2023-07-29T12:09:42;24.70;99.90
30473;DHT22;17263;48.160;11.452;2023-07-29T12:12:08;24.70;99.90
30473;DHT22;17263;48.160;11.452;2023-07-29T12:14:35;24.80;99.90
30473;DHT22;17263;48.160;11.452;2023-07-29T12:17:03;24.90;99.90
30473;DHT22;17263;48.160;11.452;2023-07-29T12:19:34;24.90;99.90
30473;DHT22;17263;48.160;11.452;2023-07-29T12:22:02;24.90;99.90
30473;DHT22;17263;48.160;11.452;2023-07-29T12:24:33;24.80;99.90
30473;DHT22;17263;48.160;11.452;2023-07-29T12:26:59;24.70;99.90
30473;DHT22;17263;48.160;11.452;2023-07-29T12:29:25;24.70;99.90
30473;DHT22;17263;48.160;11.452;2023-07-29T12:32:02;24.70;99.90
30473;DHT22;17263;48.160;11.452;2023-07-29T12:34:30;24.60;99.90
30473;DHT22;17263;48.160;11.452;2023-07-29T12:36:58;24.50;99.90
30473;DHT22;17263;48.160;11.452;2023-07-29T12:39:26;24.30;99.90
30473;DHT22;17263;48.160;11.452;2023-07-29T12:41:57;24.20;99.90
30473;DHT22;17263;48.160;11.452;2023-07-29T12:44:25;24.00;99.90
30473;DHT22;17263;48.160;11.452;2023-07-29T12:46:51;23.80;99.90
30473;DHT22;17263;48.160;11.452;2023-07-29T12:49:18;23.60;99.90
30473;DHT22;17263;48.160;11.452;2023-07-29T12:51:44;23.30;99.90
30473;DHT22;17263;48.160;11.452;2023-07-29T12:54:10;22.80;99.90
30473;DHT22;17263;48.160;11.452;2023-07-29T12:56:36;22.50;99.90
30473;DHT22;17263;48.160;11.452;2023-07-29T12:59:02;22.10;99.90
30473;DHT22;17263;48.160;11.452;2023-07-29T13:01:29;21.90;99.90
30473;DHT22;17263;48.160;11.452;2023-07-29T13:03:55;21.60;99.90
30473;DHT22;17263;48.160;11.452;2023-07-29T13:06:22;21.40;99.90
30473;DHT22;17263;48.160;11.452;2023-07-29T13:08:48;21.20;99.90
30473;DHT22;17263;48.160;11.452;2023-07-29T13:11:17;21.10;99.90
30473;DHT22;17263;48.160;11.452;2023-07-29T13:13:44;20.90;99.90
30473;DHT22;17263;48.160;11.452;2023-07-29T13:16:12;20.90;99.90
30473;DHT22;17263;48.160;11.452;2023-07-29T13:18:38;20.80;99.90
30473;DHT22;17263;48.160;11.452;2023-07-29T13:21:05;20.70;99.90
30473;DHT22;17263;48.160;11.452;2023-07-29T13:23:31;20.70;99.90
30473;DHT22;17263;48.160;11.452;2023-07-29T13:25:58;20.60;99.90
30473;DHT22;17263;48.160;11.452;2023-07-29T13:28:24;20.60;99.90
30473;DHT22;17263;48.160;11.452;2023-07-29T13:30:50;20.70;99.90
30473;DHT22;17263;48.160;11.452;2023-07-29T13:33:16;20.70;99.90
30473;DHT22;17263;48.160;11.452;2023-07-29T13:35:42;20.70;99.90
30473;DHT22;17263;48.160;11.452;2023-07-29T13:38:08;20.70;99.90
30473;DHT22;17263;48.160;11.452;2023-07-29T13:40:35;20.70;99.90
30473;DHT22;17263;48.160;11.452;2023-07-29T13:43:01;20.60;99.90
30473;DHT22;17263;48.160;11.452;2023-07-29T13:45:27;20.70;99.90
30473;DHT22;17263;48.160;11.452;2023-07-29T13:47:53;20.60;99.90
30473;DHT22;17263;48.160;11.452;2023-07-29T13:50:19;20.60;99.90
30473;DHT22;17263;48.160;11.452;2023-07-29T13:52:45;20.50;99.90
30473;DHT22;17263;48.160;11.452;2023-07-29T13:55:11;20.60;99.90
30473;DHT22;17263;48.160;11.452;2023-07-29T13:57:38;20.60;99.90
30473;DHT22;17263;48.160;11.452;2023-07-29T14:00:05;20.50;99.90
30473;DHT22;17263;48.160;11.452;2023-07-29T14:02:32;20.50;99.90
30473;DHT22;17263;48.160;11.452;2023-07-29T14:04:58;20.50;99.90
30473;DHT22;17263;48.160;11.452;2023-07-29T14:07:24;20.40;99.90
30473;DHT22;17263;48.160;11.452;2023-07-29T14:09:50;20.40;99.90
30473;DHT22;17263;48.160;11.452;2023-07-29T14:15:26;20.20;99.90
30473;DHT22;17263;48.160;11.452;2023-07-29T14:17:52;20.20;99.90
30473;DHT22;17263;48.160;11.452;2023-07-29T14:20:18;20.20;99.90
30473;DHT22;17263;48.160;11.452;2023-07-29T14:22:45;20.20;99.90
30473;DHT22;17263;48.160;11.452;2023-07-29T14:25:11;20.10;99.90
30473;DHT22;17263;48.160;11.452;2023-07-29T14:27:37;20.10;99.90
30473;DHT22;17263;48.160;11.452;2023-07-29T14:30:04;20.10;99.90
30473;DHT22;17263;48.160;11.452;2023-07-29T14:32:30;20.10;99.90
30473;DHT22;17263;48.160;11.452;2023-07-29T14:34:56;20.10;99.90
30473;DHT22;17263;48.160;11.452;2023-07-29T14:37:22;20.00;99.90
30473;DHT22;17263;48.160;11.452;2023-07-29T14:39:48;20.00;99.90
30473;DHT22;17263;48.160;11.452;2023-07-29T14:42:14;20.00;99.90
30473;DHT22;17263;48.160;11.452;2023-07-29T14:44:41;19.90;99.90
30473;DHT22;17263;48.160;11.452;2023-07-29T14:47:08;19.80;99.90
30473;DHT22;17263;48.160;11.452;2023-07-29T14:49:34;19.70;99.90
30473;DHT22;17263;48.160;11.452;2023-07-29T14:52:00;19.70;99.90
30473;DHT22;17263;48.160;11.452;2023-07-29T14:54:26;19.60;99.90
30473;DHT22;17263;48.160;11.452;2023-07-29T14:56:52;19.60;99.90
30473;DHT22;17263;48.160;11.452;2023-07-29T14:59:18;19.50;99.90
30473;DHT22;17263;48.160;11.452;2023-07-29T15:01:44;19.40;99.90
30473;DHT22;17263;48.160;11.452;2023-07-29T15:04:10;19.40;99.90
30473;DHT22;17263;48.160;11.452;2023-07-29T15:06:36;19.30;99.90
30473;DHT22;17263;48.160;11.452;2023-07-29T15:09:02;19.30;99.90
30473;DHT22;17263;48.160;11.452;2023-07-29T15:11:29;19.30;99.90
30473;DHT22;17263;48.160;11.452;2023-07-29T15:13:55;19.20;99.90
30473;DHT22;17263;48.160;11.452;2023-07-29T15:16:23;19.30;99.90
30473;DHT22;17263;48.160;11.452;2023-07-29T15:18:50;19.30;99.90
30473;DHT22;17263;48.160;11.452;2023-07-29T15:21:16;19.30;99.90
30473;DHT22;17263;48.160;11.452;2023-07-29T15:23:43;19.30;99.90
30473;DHT22;17263;48.160;11.452;2023-07-29T15:26:09;19.40;99.90
30473;DHT22;17263;48.160;11.452;2023-07-29T15:28:35;19.40;99.90
30473;DHT22;17263;48.160;11.452;2023-07-29T15:31:01;19.50;99.90
30473;DHT22;17263;48.160;11.452;2023-07-29T15:33:27;19.50;99.90
30473;DHT22;17263;48.160;11.452;2023-07-29T15:35:53;19.60;99.90
30473;DHT22;17263;48.160;11.452;2023-07-29T15:38:19;19.60;99.90
30473;DHT22;17263;48.160;11.452;2023-07-29T15:40:45;19.60;99.90